Time;durP1;ratioP1;P1;durP2;ratioP2;P2;SDS_P1;SDS_P2;PMS_P1;PMS_P2;Temp;Humidity;BMP_temperature;BMP_pressure;BME280_temperature;BME280_humidity;BME280_pressure;Samples;Min_cycle;Max_cycle;Signal;HPM_P1;HPM_P2
2022/07/03 00:01:11;;;;;;;2.70;1.58;;;18.40;90.80;;;17.60;66.12;97522.53;5009790;28;20409;-80
2022/07/03 00:03:37;;;;;;;4.27;1.60;;;18.40;91.10;;;17.61;66.01;97524.13;5009957;28;20411;-80
2022/07/03 00:06:04;;;;;;;4.22;1.90;;;18.40;91.40;;;17.55;66.12;97528.75;5009862;28;20409;-80
2022/07/03 00:08:30;;;;;;;2.65;1.70;;;18.30;91.50;;;17.53;66.55;97528.25;5009206;28;20463;-80
2022/07/03 00:10:56;;;;;;;3.25;1.85;;;18.30;91.80;;;17.52;66.87;97525.84;4992064;28;20425;-81
2022/07/03 00:13:23;;;;;;;3.00;1.55;;;18.30;92.20;;;17.53;66.98;97519.44;5010117;28;20409;-80
2022/07/03 00:15:49;;;;;;;3.80;2.00;;;18.20;92.40;;;17.50;67.06;97525.38;5009915;28;20787;-81
2022/07/03 00:18:15;;;;;;;3.40;1.80;;;18.20;92.60;;;17.49;67.15;97529.13;5009271;28;20448;-81
2022/07/03 00:20:45;;;;;;;4.28;1.80;;;18.20;92.90;;;17.50;67.38;97528.84;5009648;28;20420;-80
2022/07/03 00:23:17;;;;;;;2.05;1.75;;;18.20;93.30;;;17.50;67.41;97523.50;5009860;28;20767;-80
2022/07/03 00:25:44;;;;;;;2.40;1.60;;;18.20;93.50;;;17.49;67.71;97521.91;5009787;28;20411;-80
2022/07/03 00:28:10;;;;;;;2.15;1.50;;;18.20;93.90;;;17.47;67.64;97533.97;5009277;28;20429;-80
2022/07/03 00:30:38;;;;;;;2.83;1.80;;;18.20;94.40;;;17.45;67.88;97530.78;5009317;28;20433;-80
2022/07/03 00:33:06;;;;;;;2.67;1.70;;;18.20;94.30;;;17.44;68.13;97532.69;5009791;28;20566;-80
2022/07/03 00:35:35;;;;;;;2.45;1.70;;;18.20;94.60;;;17.43;68.25;97528.44;5009600;28;20412;-80
2022/07/03 00:38:01;;;;;;;3.73;1.70;;;18.10;94.90;;;17.41;68.45;97531.38;5009293;28;20401;-80
2022/07/03 00:40:28;;;;;;;3.58;1.73;;;18.10;95.20;;;17.38;68.44;97523.94;5009459;28;20520;-81
2022/07/03 00:42:55;;;;;;;2.60;1.77;;;18.10;95.30;;;17.34;68.47;97522.94;5009528;28;20964;-81
2022/07/03 00:45:21;;;;;;;3.00;2.08;;;18.10;95.50;;;17.33;68.77;97523.22;5011330;28;20411;-81
2022/07/03 00:47:49;;;;;;;5.53;1.90;;;18.10;95.80;;;17.35;69.20;97527.22;5038898;22;20911;-77
2022/07/03 00:50:15;;;;;;;1.87;1.77;;;18.10;96.30;;;17.37;68.67;97524.22;5051962;28;20416;-78
2022/07/03 00:52:47;;;;;;;2.40;1.58;;;18.10;96.30;;;17.37;68.86;97530.38;5052834;28;20412;-78
2022/07/03 00:55:17;;;;;;;2.90;1.80;;;18.10;96.40;;;17.38;68.76;97531.97;5052628;28;20404;-78
2022/07/03 00:57:47;;;;;;;6.00;1.92;;;18.10;96.40;;;17.43;69.00;97528.44;5052712;28;20440;-78
2022/07/03 01:00:15;;;;;;;4.43;1.80;;;18.10;96.60;;;17.47;68.30;97528.63;5051727;28;20402;-78
2022/07/03 01:02:51;;;;;;;1.95;1.73;;;18.20;96.30;;;17.50;68.54;97528.06;5052719;28;20897;-78
2022/07/03 01:05:28;;;;;;;5.20;1.70;;;18.20;96.50;;;17.53;68.22;97527.44;5034497;28;20834;-79
2022/07/03 01:08:11;;;;;;;4.55;1.75;;;18.20;96.20;;;17.58;68.18;97528.19;5052532;28;20401;-78
2022/07/03 01:10:49;;;;;;;2.00;1.67;;;18.30;96.20;;;17.59;68.09;97535.09;5052233;28;20410;-79
2022/07/03 01:13:21;;;;;;;3.80;1.80;;;18.30;96.10;;;17.64;67.54;97531.59;5052639;28;20428;-78
2022/07/03 01:16:02;;;;;;;2.42;1.88;;;18.40;95.70;;;17.69;67.20;97528.84;5052423;28;20404;-78
2022/07/03 01:18:41;;;;;;;2.05;1.70;;;18.30;95.30;;;17.73;67.30;97522.63;5052004;28;20538;-79
2022/07/03 01:21:22;;;;;;;2.30;1.50;;;18.40;95.30;;;17.74;67.59;97520.75;5052423;28;20396;-78
2022/07/03 01:24:38;;;;;;;3.27;1.80;;;18.40;95.20;;;17.75;67.25;97525.78;5052678;28;20390;-78
2022/07/03 01:27:10;;;;;;;3.28;1.63;;;18.40;95.10;;;17.71;67.47;97519.44;5052627;28;20928;-78
2022/07/03 01:29:51;;;;;;;3.47;1.52;;;18.40;95.30;;;17.72;67.58;97522.91;5051513;28;20428;-78
2022/07/03 01:32:18;;;;;;;2.60;1.53;;;18.40;95.70;;;17.69;67.87;97518.91;5051695;28;20523;-79
2022/07/03 01:34:53;;;;;;;4.65;2.17;;;18.40;95.80;;;17.78;66.97;97516.38;5052061;28;20426;-79
2022/07/03 01:37:23;;;;;;;2.85;1.70;;;18.40;95.00;;;17.77;67.30;97512.91;5052118;28;20806;-78
2022/07/03 01:39:52;;;;;;;7.90;1.87;;;18.50;95.30;;;17.86;66.76;97514.91;5051432;28;20393;-78
2022/07/03 01:42:22;;;;;;;4.38;1.80;;;18.50;95.00;;;17.87;66.71;97519.97;5051655;28;20588;-78
2022/07/03 01:44:50;;;;;;;2.70;1.52;;;18.50;94.80;;;17.88;66.58;97512.72;5051754;28;20393;-78
2022/07/03 01:47:17;;;;;;;1.67;1.52;;;18.50;94.70;;;17.95;66.16;97513.13;5033734;28;20500;-79
2022/07/03 01:49:44;;;;;;;3.33;1.65;;;18.60;94.30;;;18.00;65.89;97516.50;5033152;28;20409;-78
2022/07/03 01:52:11;;;;;;;3.20;1.50;;;18.60;93.90;;;18.04;66.08;97519.41;5051528;28;20492;-78
2022/07/03 01:54:38;;;;;;;2.17;1.63;;;18.70;93.90;;;18.08;65.57;97517.72;5051623;28;20875;-77
2022/07/03 01:57:06;;;;;;;1.52;1.35;;;18.70;93.60;;;18.05;65.93;97521.78;5050747;28;20393;-77
2022/07/03 01:59:35;;;;;;;2.30;1.50;;;18.70;93.60;;;18.07;65.62;97516.13;5050964;28;20559;-78
2022/07/03 02:02:12;;;;;;;2.38;1.65;;;18.70;93.60;;;18.10;65.79;97510.19;5051463;28;20492;-78
2022/07/03 02:04:54;;;;;;;2.72;1.60;;;18.70;93.60;;;18.10;65.62;97516.34;5051426;28;20402;-78
2022/07/03 02:07:28;;;;;;;2.60;1.80;;;18.70;93.70;;;18.13;65.37;97515.72;5051400;28;20405;-77
2022/07/03 02:10:04;;;;;;;3.45;1.40;;;18.70;93.20;;;18.11;65.52;97511.78;5050777;28;20421;-77
2022/07/03 02:12:39;;;;;;;1.77;1.48;;;18.80;93.10;;;18.09;65.66;97508.59;5051469;28;20786;-77
2022/07/03 02:15:10;;;;;;;3.58;1.50;;;18.70;93.10;;;18.09;65.64;97503.22;5051322;28;20918;-77
2022/07/03 02:17:38;;;;;;;2.15;1.63;;;18.70;93.20;;;18.07;65.87;97508.88;5051219;28;20386;-77
2022/07/03 02:20:09;;;;;;;2.05;1.50;;;18.70;93.50;;;18.05;65.77;97511.06;5050438;28;20756;-79
2022/07/03 02:22:40;;;;;;;2.35;1.40;;;18.70;93.40;;;18.05;65.35;97505.69;5051194;28;20501;-78
2022/07/03 02:25:11;;;;;;;3.10;1.52;;;18.70;93.20;;;18.05;66.01;97510.25;5051170;28;20419;-77
2022/07/03 02:27:46;;;;;;;4.05;1.40;;;18.70;93.50;;;18.02;66.07;97509.00;5051154;28;20427;-77
2022/07/03 02:30:14;;;;;;;2.92;1.65;;;18.70;93.50;;;18.02;65.82;97503.63;5050256;28;20421;-77
2022/07/03 02:32:50;;;;;;;2.97;1.52;;;18.70;93.30;;;17.99;65.91;97498.84;5050946;28;20894;-77
2022/07/03 02:35:24;;;;;;;3.72;1.70;;;18.70;93.50;;;17.98;66.13;97502.63;5050877;28;20401;-77
2022/07/03 02:37:59;;;;;;;2.53;1.50;;;18.60;93.60;;;17.97;66.04;97502.91;5050907;28;20401;-78
2022/07/03 02:40:30;;;;;;;1.85;1.63;;;18.60;93.70;;;17.92;66.49;97511.03;5050093;28;20487;-78
2022/07/03 02:43:10;;;;;;;3.00;1.50;;;18.60;94.00;;;17.90;66.65;97510.53;5050829;28;20401;-76
2022/07/03 02:45:43;;;;;;;3.55;1.80;;;18.60;94.20;;;17.88;66.52;97500.13;5050778;28;20440;-78
2022/07/03 02:48:20;;;;;;;4.28;1.90;;;18.50;94.10;;;17.89;66.32;97508.97;5032180;28;20547;-79
2022/07/03 02:50:51;;;;;;;3.05;1.70;;;18.50;94.00;;;17.86;66.63;97504.19;5050422;28;20440;-78
2022/07/03 02:53:26;;;;;;;3.03;1.80;;;18.50;94.20;;;17.82;66.96;97509.31;5050585;28;21261;-78
2022/07/03 02:56:04;;;;;;;1.80;1.50;;;18.50;94.50;;;17.81;66.81;97509.66;5050322;28;20393;-79
2022/07/03 02:58:52;;;;;;;1.53;1.33;;;18.50;94.60;;;17.78;67.18;97519.84;5050050;28;20492;-78
2022/07/03 03:01:38;;;;;;;4.23;1.60;;;18.40;94.70;;;17.82;66.85;97517.34;5050316;28;20436;-80
2022/07/03 03:04:20;;;;;;;2.43;1.60;;;18.50;94.70;;;17.77;67.50;97523.59;5050493;28;20408;-79
2022/07/03 03:06:53;;;;;;;2.60;1.60;;;18.50;95.00;;;17.73;67.61;97524.50;5050317;28;20405;-79
2022/07/03 03:09:27;;;;;;;3.55;1.50;;;18.40;95.30;;;17.74;67.24;97518.06;5049102;28;20900;-79
2022/07/03 03:12:00;;;;;;;2.72;1.60;;;18.40;95.20;;;17.74;66.98;97523.41;5049912;28;20933;-79
2022/07/03 03:14:34;;;;;;;3.50;2.00;;;18.40;94.80;;;17.74;67.28;97526.09;5050391;28;20393;-79
2022/07/03 03:17:05;;;;;;;2.33;1.70;;;18.40;95.20;;;17.73;67.22;97527.19;5050216;28;20415;-79
2022/07/03 03:19:39;;;;;;;1.92;1.63;;;18.40;95.10;;;17.72;67.28;97529.06;5049640;28;20389;-78
2022/07/03 03:22:16;;;;;;;2.90;1.58;;;18.40;95.10;;;17.73;66.80;97527.97;5050124;28;20759;-79
2022/07/03 03:24:42;;;;;;;6.18;2.10;;;18.40;94.90;;;17.79;66.51;97526.78;5050075;28;20456;-79
2022/07/03 03:27:09;;;;;;;2.42;1.80;;;18.40;94.50;;;17.78;66.70;97532.44;5049967;28;20397;-79
2022/07/03 03:29:35;;;;;;;4.18;1.20;;;18.40;94.50;;;17.75;67.12;97528.44;5049327;28;20452;-78
2022/07/03 03:32:04;;;;;;;3.22;1.63;;;18.40;94.90;;;17.72;67.26;97526.38;5050000;28;20398;-78
2022/07/03 03:34:32;;;;;;;1.77;1.50;;;18.40;95.10;;;17.73;67.15;97535.22;5049838;28;20409;-78
2022/07/03 03:37:00;;;;;;;2.75;1.50;;;18.40;95.00;;;17.68;67.24;97533.38;5049818;28;20401;-78
2022/07/03 03:39:26;;;;;;;1.92;1.50;;;18.40;95.30;;;17.70;67.00;97533.91;5049584;28;20392;-79
2022/07/03 03:41:52;;;;;;;2.65;1.50;;;18.40;94.90;;;17.75;66.71;97539.16;5049656;28;20736;-79
2022/07/03 03:44:18;;;;;;;3.05;1.60;;;18.40;94.60;;;17.75;66.83;97541.03;5049943;28;20397;-78
2022/07/03 03:46:44;;;;;;;3.75;1.85;;;18.40;94.80;;;17.76;66.53;97545.31;5049755;28;20555;-79
2022/07/03 03:49:12;;;;;;;1.85;1.50;;;18.40;94.70;;;17.80;66.06;97538.31;5049005;28;20412;-79
2022/07/03 03:51:39;;;;;;;2.60;1.90;;;18.40;94.30;;;17.79;66.28;97534.03;5049595;28;20408;-78
2022/07/03 03:54:05;;;;;;;2.70;1.60;;;18.40;94.20;;;17.79;66.61;97545.53;5049948;28;20397;-79
2022/07/03 03:56:31;;;;;;;2.35;1.50;;;18.40;94.50;;;17.76;66.97;97545.31;5049616;28;20413;-79
2022/07/03 03:58:57;;;;;;;2.58;1.35;;;18.50;94.90;;;17.77;66.67;97545.03;5049060;28;20405;-79
2022/07/03 04:01:23;;;;;;;2.17;1.63;;;18.50;94.70;;;17.77;66.94;97545.03;5049611;28;20496;-78
2022/07/03 04:03:49;;;;;;;2.57;1.40;;;18.50;94.70;;;17.79;66.61;97545.53;5050033;28;20428;-79
2022/07/03 04:06:19;;;;;;;1.92;1.50;;;18.50;94.80;;;17.81;67.06;97544.44;5049677;28;20397;-78
2022/07/03 04:08:45;;;;;;;3.95;1.45;;;18.40;94.90;;;17.77;67.28;97542.34;5048977;28;20416;-78
2022/07/03 04:11:11;;;;;;;3.08;1.77;;;18.40;95.20;;;17.75;67.59;97549.06;5049472;28;20424;-78
2022/07/03 04:13:36;;;;;;;2.08;1.42;;;18.40;95.50;;;17.79;67.27;97553.56;5049624;28;20401;-78
2022/07/03 04:16:03;;;;;;;2.08;1.40;;;18.40;95.30;;;17.84;67.47;97543.84;5049660;28;20543;-78
2022/07/03 04:18:30;;;;;;;2.00;1.50;;;18.50;95.40;;;17.87;67.19;97546.75;5049101;28;20484;-79
2022/07/03 04:20:56;;;;;;;2.40;1.70;;;18.50;95.20;;;17.88;67.64;97550.22;5052229;28;20543;-78
2022/07/03 04:23:23;;;;;;;2.38;1.50;;;18.50;95.80;;;17.86;67.65;97553.19;5053564;28;20405;-79
2022/07/03 04:25:49;;;;;;;7.55;2.05;;;18.50;95.90;;;17.93;67.26;97550.94;5053410;28;20749;-78
2022/07/03 04:28:15;;;;;;;5.55;1.48;;;18.60;95.50;;;17.96;67.90;97549.56;5052682;28;20466;-79
2022/07/03 04:30:41;;;;;;;2.50;1.67;;;18.60;96.10;;;18.06;66.26;97560.06;5052993;28;20419;-79
2022/07/03 04:33:07;;;;;;;1.85;1.40;;;18.70;94.70;;;18.07;66.89;97562.47;5053408;28;20420;-79
2022/07/03 04:35:33;;;;;;;3.72;1.55;;;18.70;94.80;;;18.09;67.00;97562.16;5053206;28;20899;-79
2022/07/03 04:37:59;;;;;;;2.10;1.50;;;18.70;95.10;;;18.19;66.63;97567.34;5053181;28;20467;-79
2022/07/03 04:40:26;;;;;;;1.83;1.53;;;18.80;94.80;;;18.19;66.59;97570.81;5052303;28;20403;-78
2022/07/03 04:42:52;;;;;;;2.60;1.50;;;18.80;94.70;;;18.22;66.99;97571.31;5053283;28;20435;-78
2022/07/03 04:45:19;;;;;;;2.60;1.53;;;18.80;94.80;;;18.27;66.43;97573.94;5053071;28;20409;-79
2022/07/03 04:47:45;;;;;;;1.80;1.30;;;18.90;94.80;;;18.33;66.16;97578.09;5053039;28;20898;-78
2022/07/03 04:50:11;;;;;;;2.35;1.30;;;19.00;94.30;;;18.40;66.08;97570.47;5052358;28;20428;-78
2022/07/03 04:52:37;;;;;;;1.48;1.38;;;19.00;94.30;;;18.46;65.66;97571.94;5053073;28;20421;-79
2022/07/03 04:55:03;;;;;;;2.33;1.30;;;19.00;94.00;;;18.49;65.88;97574.81;5053027;28;20410;-79
2022/07/03 04:57:30;;;;;;;2.33;1.50;;;19.10;93.90;;;18.53;66.04;97583.88;5052918;28;20416;-78
2022/07/03 04:59:57;;;;;;;2.70;1.50;;;19.10;94.10;;;18.63;65.70;97584.81;5052555;28;21090;-78
2022/07/03 05:02:23;;;;;;;2.20;1.40;;;19.20;93.70;;;18.66;66.03;97586.88;5053170;28;20436;-78
2022/07/03 05:04:49;;;;;;;2.13;1.50;;;19.30;94.50;;;18.73;66.32;97587.25;5053271;28;20405;-78
2022/07/03 05:07:15;;;;;;;1.50;1.30;;;19.30;94.30;;;18.80;65.58;97583.09;5052902;28;20488;-79
2022/07/03 05:09:41;;;;;;;1.60;1.40;;;19.30;94.00;;;18.82;65.55;97583.59;5052044;28;20903;-78
2022/07/03 05:12:07;;;;;;;3.92;1.35;;;19.50;93.90;;;18.87;65.76;97586.16;5052486;28;20815;-78
2022/07/03 05:14:35;;;;;;;1.60;1.20;;;19.50;93.70;;;18.89;65.66;97583.97;5034572;28;20468;-79
2022/07/03 05:17:01;;;;;;;1.70;1.27;;;19.50;93.50;;;18.92;66.27;97579.91;5052374;28;20405;-78
2022/07/03 05:19:27;;;;;;;4.20;1.45;;;19.50;94.00;;;18.99;66.07;97576.81;5051901;28;20767;-78
2022/07/03 05:21:53;;;;;;;4.30;1.50;;;19.60;93.80;;;19.01;65.96;97578.13;5052243;28;20410;-79
2022/07/03 05:24:18;;;;;;;1.83;1.30;;;19.70;93.90;;;19.11;66.12;97583.25;5052348;28;20470;-79
2022/07/03 05:26:44;;;;;;;1.87;1.30;;;19.70;94.00;;;19.17;65.99;97584.72;5052291;28;20534;-79
2022/07/03 05:29:10;;;;;;;3.50;1.60;;;19.80;94.10;;;19.24;65.24;97578.97;5051604;28;20405;-79
2022/07/03 05:31:38;;;;;;;2.00;1.27;;;19.80;93.40;;;19.30;64.97;97585.81;5051837;28;20413;-79
2022/07/03 05:34:03;;;;;;;2.55;1.40;;;19.90;93.10;;;19.34;65.44;97584.91;5052184;28;20447;-79
2022/07/03 05:36:29;;;;;;;1.98;1.40;;;19.90;93.30;;;19.40;65.06;97588.25;5034171;28;20406;-78
2022/07/03 05:41:40;;;;;;;4.10;1.30;;;20.10;92.90;;;19.53;64.12;97582.09;5045788;28;20430;-79
2022/07/03 05:44:06;;;;;;;1.85;1.42;;;20.10;92.20;;;19.58;64.04;97584.66;5046147;28;20433;-78
2022/07/03 05:46:32;;;;;;;2.20;1.38;;;20.20;91.70;;;19.60;63.74;97590.53;5044024;28;20405;-79
2022/07/03 05:48:59;;;;;;;2.85;1.40;;;20.20;91.60;;;19.75;62.26;97591.28;5041629;28;20416;-79
2022/07/03 05:51:25;;;;;;;3.27;1.10;;;20.30;90.40;;;19.70;63.45;97589.47;5041240;28;20498;-78
2022/07/03 05:53:51;;;;;;;2.43;1.40;;;20.30;91.00;;;19.73;63.74;97586.19;5042701;28;20477;-79
2022/07/03 05:56:17;;;;;;;1.55;1.27;;;20.30;91.40;;;19.78;63.00;97574.53;5039486;28;20480;-79
2022/07/03 05:58:43;;;;;;;2.50;1.27;;;20.30;90.90;;;19.78;63.10;97587.94;5043143;28;20398;-78
2022/07/03 06:01:09;;;;;;;3.80;1.25;;;20.30;90.80;;;19.76;63.00;97577.53;5041932;28;20927;-79
2022/07/03 06:03:35;;;;;;;2.53;1.20;;;20.40;90.70;;;19.82;62.49;97588.94;5040040;28;20422;-79
2022/07/03 06:06:02;;;;;;;3.35;1.33;;;20.40;90.50;;;19.78;62.93;97580.69;5041640;28;20397;-78
2022/07/03 06:08:28;;;;;;;3.13;1.48;;;20.40;90.80;;;19.77;62.77;97591.75;5038718;28;20402;-75
2022/07/03 06:10:55;;;;;;;4.38;1.40;;;20.40;90.30;;;19.80;62.56;97581.19;5041809;28;20448;-75
2022/07/03 06:13:21;;;;;;;2.70;1.20;;;20.40;90.40;;;19.86;62.65;97585.34;5040376;28;20806;-74
2022/07/03 06:15:47;;;;;;;1.93;1.23;;;20.40;90.30;;;19.91;62.28;97587.13;5040710;28;20459;-75
2022/07/03 06:18:13;;;;;;;2.53;1.45;;;20.50;89.70;;;19.90;63.10;97588.22;5041399;28;20500;-75
2022/07/03 06:20:39;;;;;;;3.90;1.10;;;20.50;90.30;;;19.92;62.74;97586.78;5039890;28;20468;-76
2022/07/03 06:23:06;;;;;;;2.17;1.23;;;20.50;90.30;;;20.00;62.30;97585.25;5039951;28;20476;-75
2022/07/03 06:25:32;;;;;;;3.58;1.40;;;20.60;89.80;;;20.13;60.89;97583.63;5039049;28;20421;-78
2022/07/03 06:27:58;;;;;;;1.60;1.20;;;20.70;87.70;;;20.20;60.85;97581.28;5050818;28;20466;-78
2022/07/03 06:30:24;;;;;;;4.40;1.40;;;20.70;87.10;;;20.26;60.16;97583.53;5050085;28;20446;-79
2022/07/03 06:32:50;;;;;;;1.38;1.15;;;20.90;85.90;;;20.34;60.25;97584.72;5050669;28;20500;-79
2022/07/03 06:35:16;;;;;;;3.33;1.73;;;20.90;85.90;;;20.33;60.19;97581.22;5050710;28;20527;-80
2022/07/03 06:37:42;;;;;;;3.17;1.30;;;20.90;85.40;;;20.38;60.44;97586.44;5050772;28;20409;-80
2022/07/03 06:40:10;;;;;;;3.20;1.27;;;21.00;85.80;;;20.48;60.00;97586.19;5049731;28;20408;-80
2022/07/03 06:42:36;;;;;;;2.10;1.00;;;21.00;85.10;;;20.47;60.12;97586.50;5050077;28;20398;-81
2022/07/03 06:45:03;;;;;;;1.70;1.30;;;21.00;85.40;;;20.68;57.97;97592.91;5050542;28;20405;-80
2022/07/03 06:47:29;;;;;;;2.15;1.15;;;21.20;81.90;;;20.69;58.83;97583.75;5066288;22;20409;-80
2022/07/03 06:49:55;;;;;;;1.85;1.30;;;21.20;82.80;;;20.70;59.17;97587.22;5008524;28;20431;-81
2022/07/03 06:52:21;;;;;;;2.00;1.20;;;21.20;83.20;;;20.81;57.23;97589.34;5010746;28;20408;-80
2022/07/03 06:54:47;;;;;;;3.93;1.20;;;21.30;80.60;;;20.85;56.12;97592.19;5010741;28;20409;-80
2022/07/03 06:57:15;;;;;;;3.03;1.30;;;21.40;78.50;;;20.93;57.42;97596.78;5010880;28;21449;-81
2022/07/03 06:59:41;;;;;;;1.48;1.05;;;21.50;80.20;;;20.93;57.35;97596.78;5009943;28;20412;-79
2022/07/03 07:02:07;;;;;;;8.25;1.50;;;21.50;79.80;;;21.07;55.59;97596.66;5010600;28;20404;-80
2022/07/03 07:04:33;;;;;;;2.78;1.10;;;21.50;77.90;;;21.12;55.40;97601.94;5009997;28;20500;-80
2022/07/03 07:06:59;;;;;;;2.35;1.00;;;21.60;77.40;;;21.12;55.91;97596.53;4999705;28;20915;-81
2022/07/03 07:09:25;;;;;;;2.42;0.93;;;21.60;77.20;;;21.06;55.89;97593.19;5000747;28;20430;-80
2022/07/03 07:11:51;;;;;;;4.40;1.43;;;21.60;77.50;;;21.05;55.11;97593.53;5002814;28;20526;-80
2022/07/03 07:14:19;;;;;;;2.77;1.20;;;21.60;76.30;;;21.20;53.25;97595.78;5000385;28;20413;-80
2022/07/03 07:16:44;;;;;;;2.20;1.00;;;21.70;73.70;;;21.25;53.92;97598.31;5003399;28;20541;-80
2022/07/03 07:19:10;;;;;;;0.80;0.80;;;21.80;74.50;;;21.24;54.64;97602.13;5009028;28;20401;-80
2022/07/03 07:21:37;;;;;;;1.40;1.00;;;21.80;74.60;;;21.23;54.63;97590.56;5010011;28;20400;-80
2022/07/03 07:24:04;;;;;;;2.43;1.23;;;21.80;74.70;;;21.22;54.59;97594.34;5010484;28;20404;-80
2022/07/03 07:26:30;;;;;;;5.80;1.10;;;21.80;75.00;;;21.35;53.72;97599.94;5010076;28;20405;-80
2022/07/03 07:28:56;;;;;;;1.77;0.90;;;21.90;74.60;;;21.47;53.55;97598.19;5009365;28;20455;-80
2022/07/03 07:31:23;;;;;;;1.88;1.20;;;22.00;73.40;;;21.51;52.66;97598.34;5009630;28;20511;-80
2022/07/03 07:33:49;;;;;;;4.97;1.00;;;22.10;72.50;;;21.63;50.81;97602.00;5010246;28;20896;-80
2022/07/03 07:36:15;;;;;;;2.55;0.90;;;22.10;69.80;;;21.62;51.60;97607.72;5010244;28;20404;-80
2022/07/03 07:38:41;;;;;;;4.28;1.00;;;22.10;70.80;;;21.65;51.22;97606.28;5009532;28;20466;-79
2022/07/03 07:41:07;;;;;;;1.30;0.90;;;22.20;70.40;;;21.83;49.37;97616.72;5002379;28;20410;-79
2022/07/03 07:43:33;;;;;;;1.80;0.93;;;22.30;67.60;;;21.90;49.84;97625.13;4990676;28;20409;-77
2022/07/03 07:45:59;;;;;;;2.15;0.80;;;22.40;67.70;;;21.88;49.48;97621.16;4990565;28;20632;-79
2022/07/03 07:48:26;;;;;;;2.03;0.93;;;22.40;67.40;;;22.00;49.46;97613.25;5005556;28;20465;-77
2022/07/03 07:50:52;;;;;;;0.80;0.80;;;22.50;67.50;;;22.02;51.03;97621.84;5029490;28;20935;-79
2022/07/03 07:53:18;;;;;;;2.43;0.80;;;22.50;69.00;;;22.02;49.04;97611.06;5029957;28;20408;-78
2022/07/03 07:55:44;;;;;;;2.30;0.90;;;22.50;66.00;;;22.00;49.87;97613.25;5032487;28;20433;-81
2022/07/03 07:58:10;;;;;;;2.10;0.90;;;22.50;67.60;;;22.04;50.18;97616.09;5033413;28;20438;-76
2022/07/03 08:00:36;;;;;;;1.70;0.90;;;22.50;67.60;;;22.04;49.94;97606.09;5033612;28;20410;-80
2022/07/03 08:05:48;;;;;;;1.33;0.80;;;22.50;67.80;;;22.04;49.42;97602.63;5033752;28;20441;-79
2022/07/03 08:08:16;;;;;;;4.78;1.00;;;22.60;66.90;;;22.05;49.72;97602.31;5033151;28;20977;-79
2022/07/03 08:10:44;;;;;;;2.17;0.95;;;22.60;67.10;;;22.13;49.39;97601.50;5033418;28;20451;-79
2022/07/03 08:13:12;;;;;;;1.30;1.00;;;22.60;66.60;;;22.14;49.97;97599.59;5033873;28;20407;-79
2022/07/03 08:15:41;;;;;;;1.40;1.10;;;22.60;66.50;;;22.24;48.52;97591.19;5033454;28;20468;-81
2022/07/03 08:18:07;;;;;;;0.75;0.75;;;22.70;65.70;;;22.36;47.75;97591.28;5033065;28;20399;-80
2022/07/03 08:20:35;;;;;;;2.90;0.88;;;22.80;64.80;;;22.46;45.44;97590.94;5033405;28;20887;-80
2022/07/03 08:23:03;;;;;;;1.00;0.90;;;23.00;62.40;;;22.55;46.79;97589.03;5041202;28;20401;-80
2022/07/03 08:25:30;;;;;;;1.73;1.00;;;23.00;62.60;;;22.71;44.86;97598.13;5050555;28;20401;-80
2022/07/03 08:27:56;;;;;;;2.23;1.07;;;23.10;60.90;;;22.75;45.12;97591.03;5033203;28;20399;-80
2022/07/03 08:30:22;;;;;;;1.40;0.90;;;23.30;60.90;;;22.76;46.14;97589.91;5031175;28;20424;-79
2022/07/03 08:32:50;;;;;;;3.95;1.10;;;23.30;62.00;;;22.90;44.55;97595.06;5044173;28;20417;-81
2022/07/03 08:35:17;;;;;;;3.35;0.80;;;23.40;60.20;;;22.98;45.50;97594.25;5042454;28;20486;-80
2022/07/03 08:37:46;;;;;;;1.38;1.00;;;23.50;60.70;;;23.11;45.15;97590.50;5044281;28;20432;-81
2022/07/03 08:40:15;;;;;;;4.00;0.90;;;23.60;60.50;;;23.14;45.26;97592.56;5048672;28;20476;-81
2022/07/03 08:42:45;;;;;;;1.05;0.90;;;23.70;60.60;;;23.09;45.75;97584.63;5042069;28;20390;-81
2022/07/03 08:45:14;;;;;;;4.13;0.75;;;23.60;61.50;;;23.22;44.83;97576.63;5043421;28;20467;-81
2022/07/03 08:47:42;;;;;;;1.00;0.90;;;23.60;60.40;;;23.29;43.83;97582.28;5042840;28;20406;-80
2022/07/03 08:50:10;;;;;;;8.07;1.00;;;23.70;59.10;;;23.33;43.47;97578.59;5043069;28;20421;-80
2022/07/03 08:52:36;;;;;;;0.75;0.68;;;23.80;58.80;;;23.32;43.88;97582.41;5041970;28;20426;-81
2022/07/03 08:55:03;;;;;;;2.20;0.98;;;23.80;59.30;;;23.38;43.99;97581.09;5047068;28;20492;-79
2022/07/03 08:57:32;;;;;;;1.35;0.85;;;23.90;59.00;;;23.47;44.80;97578.34;5044362;28;20406;-80
2022/07/03 09:00:03;;;;;;;1.40;0.80;;;23.90;59.80;;;23.51;45.24;97577.38;5041131;28;20407;-78
2022/07/03 09:02:31;;;;;;;3.33;1.08;;;24.00;60.50;;;23.64;42.82;97585.53;5041326;28;20883;-80
2022/07/03 09:04:58;;;;;;;0.98;0.60;;;24.10;58.20;;;23.66;40.90;97580.59;5041344;28;20971;-81
2022/07/03 09:07:25;;;;;;;2.38;0.77;;;24.10;56.10;;;23.78;41.86;97589.56;5041707;28;20429;-80
2022/07/03 09:09:51;;;;;;;1.70;0.70;;;24.20;56.60;;;23.82;41.91;97582.38;5042492;28;20462;-80
2022/07/03 09:12:19;;;;;;;2.92;0.70;;;24.30;56.60;;;23.81;43.38;97577.28;5041493;28;20468;-80
2022/07/03 09:14:46;;;;;;;1.20;0.70;;;24.30;58.10;;;23.85;41.33;97576.28;5041687;28;20405;-80
2022/07/03 09:17:12;;;;;;;1.70;0.67;;;24.30;56.20;;;24.00;41.41;97569.47;5043083;28;20485;-80
2022/07/03 09:19:43;;;;;;;3.80;0.70;;;24.40;56.30;;;24.13;39.15;97573.78;5030949;28;20487;-81
2022/07/03 09:22:24;;;;;;;3.30;0.50;;;24.50;54.00;;;24.28;39.79;97578.56;5037874;28;20430;-81
2022/07/03 09:24:52;;;;;;;1.65;0.77;;;24.60;54.70;;;24.25;38.98;97579.25;5034385;28;20541;-81
2022/07/03 09:27:20;;;;;;;0.50;0.50;;;24.70;53.20;;;24.36;38.46;97579.59;5032076;28;20863;-81
2022/07/03 09:30:00;;;;;;;2.38;0.57;;;24.80;52.70;;;24.46;36.28;97587.31;5031406;28;20461;-78
2022/07/03 09:32:30;;;;;;;1.40;0.80;;;24.80;50.30;;;24.42;37.22;97577.50;5031920;28;20928;-80
2022/07/03 09:35:18;;;;;;;1.00;0.70;;;24.80;51.30;;;24.51;36.84;97573.53;5032075;28;21187;-78
2022/07/03 09:37:53;;;;;;;1.20;0.73;;;25.00;51.00;;;24.44;37.58;97572.53;5031852;28;20403;-77
2022/07/03 09:40:20;;;;;;;2.70;0.85;;;24.90;51.90;;;24.51;38.71;97568.13;5031024;28;20402;-80
2022/07/03 09:43:00;;;;;;;1.43;0.90;;;25.00;52.70;;;24.63;39.26;97565.44;5031856;28;20411;-80
2022/07/03 09:45:47;;;;;;;1.40;0.80;;;25.10;53.40;;;24.76;39.09;97570.84;5061051;28;20412;-80
2022/07/03 09:48:22;;;;;;;1.35;0.77;;;25.20;53.50;;;24.77;39.76;97575.16;5049222;28;20430;-80
2022/07/03 09:50:48;;;;;;;1.20;0.70;;;25.20;54.40;;;24.92;40.38;97574.50;5070937;28;20412;-79
2022/07/03 09:53:14;;;;;;;1.77;0.77;;;25.30;54.30;;;24.96;39.45;97565.34;5071562;28;20411;-81
2022/07/03 09:55:40;;;;;;;0.90;0.63;;;25.40;53.50;;;24.99;39.27;97558.47;5070615;28;20399;-79
2022/07/03 09:58:06;;;;;;;0.90;0.70;;;25.40;53.40;;;24.96;40.45;97562.63;5067744;28;20439;-79
2022/07/03 10:00:35;;;;;;;1.63;0.80;;;25.30;54.80;;;25.01;41.08;97551.59;5067815;28;20431;-80
2022/07/03 10:03:03;;;;;;;0.60;0.60;;;25.40;55.30;;;25.08;40.35;97552.94;5068572;28;20392;-81
2022/07/03 10:05:31;;;;;;;1.90;0.70;;;25.50;54.80;;;25.26;39.89;97552.31;5069317;28;20431;-80
2022/07/03 10:07:59;;;;;;;1.55;0.63;;;25.60;54.10;;;25.22;39.42;97556.84;5069407;28;20491;-81
2022/07/03 10:10:27;;;;;;;1.50;0.60;;;25.60;53.70;;;25.39;38.43;97561.22;5069076;28;20412;-81
2022/07/03 10:12:55;;;;;;;0.80;0.68;;;25.80;52.80;;;25.38;38.67;97560.44;5071444;28;20399;-80
2022/07/03 10:15:23;;;;;;;0.60;0.60;;;25.80;53.20;;;25.41;39.42;97551.59;5071257;28;20445;-81
2022/07/03 10:17:52;;;;;;;0.90;0.50;;;25.70;53.50;;;25.53;39.96;97552.72;5052251;28;20496;-81
2022/07/03 10:20:27;;;;;;;1.10;0.68;;;25.90;54.20;;;25.58;37.44;97555.16;5070393;28;20900;-77
2022/07/03 10:22:54;;;;;;;1.00;0.75;;;26.00;52.20;;;25.65;37.82;97558.91;5071195;28;20415;-80
2022/07/03 10:25:21;;;;;;;1.60;0.77;;;26.00;53.00;;;25.62;36.12;97554.19;5070963;28;20889;-80
2022/07/03 10:27:48;;;;;;;1.08;0.80;;;26.00;51.10;;;25.59;37.36;97559.50;5071052;28;20476;-79
2022/07/03 10:30:16;;;;;;;1.90;0.60;;;26.10;51.40;;;25.54;37.30;97560.50;5070041;28;20922;-80
2022/07/03 10:32:45;;;;;;;2.30;0.50;;;26.00;51.00;;;25.61;38.45;97557.22;5070995;28;20410;-80